Sabana Seca, PR (00952)

11:58 AM AST on June 03, 2015 (GMT -0400)
Rio Hondo 2 | | Change Station
CLOSE
Current Station
Personal Weather Station
Location: Bayamón, BAYAMóN
Elevation: 30 ft
Nearby Weather Stations

Elev 30 ft 18.42 °N, 66.17 °W | Updated 9 minutes ago

Scattered Clouds
Scattered Clouds
91.9 °F
Feels Like 104 °F
N
11.4
Wind Variable Wind from NE

Today
High -- | Low -- °F
--% Chance of Precip.
Yesterday
High -- | Low -- °F
Precip. -- in
5:47 AM 6:58 PM
Full, 99% visible
Pressure 29.99 in
Visibility 10.0 miles
Clouds Few 3000 ft
Scattered Clouds 3800 ft
Scattered Clouds 8000 ft
Heat Index 104 °F
Dew Point 76 °F
Humidity 59%
Rainfall 0.00 in
Snow Depth Not available.
UV 9 out of 12
Pollen Not available.
Air Quality Not available.
Flu Activity Local Activity
METAR TJSJ 031456Z 08010KT 10SM FEW030 SCT038 SCT080 31/25 A2999 RMK AO2 SLP153 T03060250 58002

More Conditions Fewer Conditions

Pressure 29.99 in
Visibility 10.0 miles
Clouds Few 3000 ft
Scattered Clouds 3800 ft
Scattered Clouds 8000 ft
Heat Index 104 °F
Dew Point 76 °F
Humidity 59%
Rainfall 0.00 in
Snow Depth Not available.
UV 9 out of 12
Pollen Not available.
Air Quality Not available.
Flu Activity Local Activity
METAR TJSJ 031456Z 08010KT 10SM FEW030 SCT038 SCT080 31/25 A2999 RMK AO2 SLP153 T03060250 58002

More Conditions Fewer Conditions

10-Day Weather Forecast

×

Almanac

Astronomy

Jun. 03, 2015 Rise Set
Actual Time
Civil Twilight
Nautical Twilight
Astronomical Twilight
Moon
Length of Visible Light
Length of Day
Tomorrow will be .
, % of the Moon is Illuminated

Today's Extremes

State Highs State Lows

Community

WunderPhotos

Upload Photos

1,826,241 photos uploaded!

WunderBlogs® & News

Nearby

Air Quality

  Air Quality AQ Index Pollutant
Not available.

Snow Depth

Station Depth Elevation

Earthquake Activity

City Distance Mag. Time & Date
Minimum magnitude displayed is 2.5.

Coastal Water Temperatures

Place Temperature

Stations

Nearby Weather Stations

Station Location Temp. Windchill Dew Point Humidity Wind Precip. Elev Updated Type